Date,TemperatureHighF,TemperatureAvgF,TemperatureLowF,DewpointHighF,DewpointAvgF,DewpointLowF,HumidityHigh,HumidityAvg,HumidityLow,PressureMaxIn,PressureMinIn,WindSpeedMaxMPH,WindSpeedAvgMPH,GustSpeedMaxMPH,PrecipitationSumIn
2013-2-1,32.2,23.8,13.5,26.4,9.7,2.8,84,55,39,30.34,29.78,14,4,14,0.00
2013-2-2,34.0,22.5,12.6,21.9,12.7,3.7,81,66,41,30.34,29.97,6,1,7,0.00
2013-2-3,38.5,31.9,27.0,28.4,22.7,13.8,85,70,52,29.97,29.79,8,2,8,0.00
2013-2-4,38.5,29.8,19.1,27.7,16.9,9.8,70,59,50,30.08,29.89,7,2,8,0.00
2013-2-5,51.5,42.3,34.2,35.5,31.4,26.8,76,65,54,29.92,29.82,7,2,7,0.00
2013-2-6,49.0,39.4,30.1,31.2,27.7,20.9,81,64,45,30.32,29.92,7,2,7,0.00
2013-2-7,43.6,35.2,27.5,30.6,26.0,20.6,83,69,57,30.38,30.15,6,1,6,0.00
2013-2-8,44.6,37.0,32.6,37.6,29.8,23.0,88,76,58,30.14,29.80,14,2,14,0.10
2013-2-9,43.6,34.5,23.4,23.0,15.8,11.1,64,48,29,30.37,30.01,11,2,11,0.00
2013-2-10,46.8,32.9,17.5,28.2,18.9,10.8,80,58,36,30.43,30.18,11,2,11,0.02
2013-2-11,62.3,48.7,38.9,51.0,39.1,24.9,83,70,39,30.18,29.79,6,2,7,0.00
2013-2-12,52.6,42.4,37.4,27.7,25.2,21.2,62,51,32,29.99,29.90,7,2,8,0.00
2013-2-13,47.5,37.7,31.9,32.9,27.1,19.8,89,66,47,29.95,29.65,8,1,10,0.07
2013-2-14,48.6,36.1,26.3,31.8,27.5,22.2,91,73,49,30.03,29.81,4,1,5,0.00
2013-2-15,56.0,38.4,25.6,37.9,29.7,20.4,89,73,46,30.05,29.89,6,1,6,0.09
2013-2-16,38.2,33.2,26.8,30.9,25.2,15.6,91,73,55,30.00,29.85,6,1,9,0.00
2013-2-17,27.5,23.4,16.4,16.4,8.6,4.2,69,54,40,30.20,29.88,9,3,11,0.00
2013-2-18,47.3,25.9,13.7,23.2,12.1,4.7,74,57,35,30.35,30.11,6,1,6,0.00
2013-2-19,50.0,39.6,35.1,40.0,28.9,19.0,84,66,48,30.12,29.74,8,2,10,0.01
2013-2-25,42.1,34.0,27.4,23.9,19.2,16.4,66,55,48,30.19,30.14,3,0,3,0.00
2013-2-26,41.6,34.4,25.6,39.5,28.8,16.7,93,80,65,30.19,29.63,13,2,13,0.83
2013-2-27,52.0,42.8,36.4,42.8,35.5,30.6,92,76,56,29.73,29.59,7,2,7,0.00
2013-2-28,42.5,38.7,34.6,32.3,27.7,25.0,79,65,51,29.78,29.66,8,2,8,0.01